Adams, Illinois
Current Conditions -  °F | °C
As of 8:17 AM on Sunday 25 Jan 2015 (Local Time) from KUIN Reporting Station
Light Rain Light Rain  
Wind Chill:   Ceiling: 3000
Heat Index:   Visibility: 6mi
Dew Point:   Wind: 6mph
Humidity: 97%   Direction: 50°NE
Pressure: 29.58"   Gusts: NA
Location:  39.8875°N, 91.0352°W
Report Text: KUIN 251417Z AUTO 05005KT 6SM -RA BR BKN030 OVC046 03/03 A2958 RMK AO2 P0000 T00330028
Loading
Personal Weather Stations






























Interactive Weather Map New forecast layout! Learn more

10-Day Weather Forecast

Advertisements
Track Severe Weather on mobile